sensor_id;sensor_type;location;lat;lon;timestamp;temperature;humidity
5461;DHT22;2753;49.196;8.286;2023-08-31T00:02:10;17.00;99.90
5461;DHT22;2753;49.196;8.286;2023-08-31T00:04:35;17.00;99.90
5461;DHT22;2753;49.196;8.286;2023-08-31T00:07:01;16.90;99.90
5461;DHT22;2753;49.196;8.286;2023-08-31T00:09:27;16.90;99.90
5461;DHT22;2753;49.196;8.286;2023-08-31T00:11:55;16.80;99.90
5461;DHT22;2753;49.196;8.286;2023-08-31T00:14:22;16.80;99.90
5461;DHT22;2753;49.196;8.286;2023-08-31T00:16:48;16.80;99.90
5461;DHT22;2753;49.196;8.286;2023-08-31T00:19:15;16.70;99.90
5461;DHT22;2753;49.196;8.286;2023-08-31T00:21:42;16.70;99.90
5461;DHT22;2753;49.196;8.286;2023-08-31T00:24:08;16.70;99.90
5461;DHT22;2753;49.196;8.286;2023-08-31T00:26:35;16.60;99.90
5461;DHT22;2753;49.196;8.286;2023-08-31T00:29:06;16.70;99.90
5461;DHT22;2753;49.196;8.286;2023-08-31T00:31:32;16.70;99.90
5461;DHT22;2753;49.196;8.286;2023-08-31T00:33:59;16.50;99.90
5461;DHT22;2753;49.196;8.286;2023-08-31T00:36:33;16.40;99.90
5461;DHT22;2753;49.196;8.286;2023-08-31T00:39:04;16.40;99.90
5461;DHT22;2753;49.196;8.286;2023-08-31T00:41:32;16.40;99.90
5461;DHT22;2753;49.196;8.286;2023-08-31T00:43:58;16.40;99.90
5461;DHT22;2753;49.196;8.286;2023-08-31T00:46:24;16.40;99.90
5461;DHT22;2753;49.196;8.286;2023-08-31T00:48:53;16.40;99.90
5461;DHT22;2753;49.196;8.286;2023-08-31T00:51:19;16.40;99.90
5461;DHT22;2753;49.196;8.286;2023-08-31T00:53:45;16.40;99.90
5461;DHT22;2753;49.196;8.286;2023-08-31T00:56:11;16.50;99.90
5461;DHT22;2753;49.196;8.286;2023-08-31T00:58:38;16.50;99.90
5461;DHT22;2753;49.196;8.286;2023-08-31T01:03:45;16.40;99.90
5461;DHT22;2753;49.196;8.286;2023-08-31T01:06:41;16.30;99.90
5461;DHT22;2753;49.196;8.286;2023-08-31T01:09:25;16.40;99.90
5461;DHT22;2753;49.196;8.286;2023-08-31T01:12:02;16.30;99.90
5461;DHT22;2753;49.196;8.286;2023-08-31T01:14:34;16.40;99.90
5461;DHT22;2753;49.196;8.286;2023-08-31T01:17:04;16.40;99.90
5461;DHT22;2753;49.196;8.286;2023-08-31T01:19:49;16.40;99.90
5461;DHT22;2753;49.196;8.286;2023-08-31T01:22:38;16.30;99.90
5461;DHT22;2753;49.196;8.286;2023-08-31T01:25:09;16.30;99.90
5461;DHT22;2753;49.196;8.286;2023-08-31T01:27:35;16.30;99.90
5461;DHT22;2753;49.196;8.286;2023-08-31T01:30:03;16.30;99.90
5461;DHT22;2753;49.196;8.286;2023-08-31T01:32:30;16.30;99.90
5461;DHT22;2753;49.196;8.286;2023-08-31T01:34:56;16.30;99.90
5461;DHT22;2753;49.196;8.286;2023-08-31T01:37:35;16.20;99.90
5461;DHT22;2753;49.196;8.286;2023-08-31T01:40:13;16.20;99.90
5461;DHT22;2753;49.196;8.286;2023-08-31T01:42:43;16.20;99.90
5461;DHT22;2753;49.196;8.286;2023-08-31T01:45:15;16.20;99.90
5461;DHT22;2753;49.196;8.286;2023-08-31T01:47:43;16.20;99.90
5461;DHT22;2753;49.196;8.286;2023-08-31T01:50:09;16.20;99.90
5461;DHT22;2753;49.196;8.286;2023-08-31T01:52:35;16.30;99.90
5461;DHT22;2753;49.196;8.286;2023-08-31T01:55:01;16.20;99.90
5461;DHT22;2753;49.196;8.286;2023-08-31T01:57:26;16.20;99.90
5461;DHT22;2753;49.196;8.286;2023-08-31T01:59:53;16.20;99.90
5461;DHT22;2753;49.196;8.286;2023-08-31T02:02:19;16.20;99.90
5461;DHT22;2753;49.196;8.286;2023-08-31T02:04:44;16.10;99.90
5461;DHT22;2753;49.196;8.286;2023-08-31T02:07:10;16.00;99.90
5461;DHT22;2753;49.196;8.286;2023-08-31T02:09:35;15.90;99.90
5461;DHT22;2753;49.196;8.286;2023-08-31T02:12:01;16.00;99.90
5461;DHT22;2753;49.196;8.286;2023-08-31T02:14:27;16.00;99.90
5461;DHT22;2753;49.196;8.286;2023-08-31T02:16:54;16.00;99.90
5461;DHT22;2753;49.196;8.286;2023-08-31T02:19:20;16.00;99.90
5461;DHT22;2753;49.196;8.286;2023-08-31T02:21:46;16.00;99.90
5461;DHT22;2753;49.196;8.286;2023-08-31T02:24:11;15.90;99.90
5461;DHT22;2753;49.196;8.286;2023-08-31T02:26:37;15.90;99.90
5461;DHT22;2753;49.196;8.286;2023-08-31T02:29:03;16.00;99.90
5461;DHT22;2753;49.196;8.286;2023-08-31T02:31:29;15.90;99.90
5461;DHT22;2753;49.196;8.286;2023-08-31T02:33:55;15.90;99.90
5461;DHT22;2753;49.196;8.286;2023-08-31T02:36:20;15.90;99.90
5461;DHT22;2753;49.196;8.286;2023-08-31T02:38:46;15.90;99.90
5461;DHT22;2753;49.196;8.286;2023-08-31T02:41:12;16.00;99.90
5461;DHT22;2753;49.196;8.286;2023-08-31T02:43:38;16.00;99.90
5461;DHT22;2753;49.196;8.286;2023-08-31T02:46:05;16.00;99.90
5461;DHT22;2753;49.196;8.286;2023-08-31T02:48:32;15.90;99.90
5461;DHT22;2753;49.196;8.286;2023-08-31T02:50:58;15.90;99.90
5461;DHT22;2753;49.196;8.286;2023-08-31T02:53:30;15.90;99.90
5461;DHT22;2753;49.196;8.286;2023-08-31T02:55:56;15.80;99.90
5461;DHT22;2753;49.196;8.286;2023-08-31T02:58:22;15.70;99.90
5461;DHT22;2753;49.196;8.286;2023-08-31T03:00:51;15.60;99.90
5461;DHT22;2753;49.196;8.286;2023-08-31T03:03:17;15.50;99.90
5461;DHT22;2753;49.196;8.286;2023-08-31T03:05:45;15.50;99.90
5461;DHT22;2753;49.196;8.286;2023-08-31T03:08:11;15.50;99.90
5461;DHT22;2753;49.196;8.286;2023-08-31T03:10:37;15.60;99.90
5461;DHT22;2753;49.196;8.286;2023-08-31T03:13:03;15.60;99.90
5461;DHT22;2753;49.196;8.286;2023-08-31T03:15:29;15.50;99.90
5461;DHT22;2753;49.196;8.286;2023-08-31T03:17:55;15.50;99.90
5461;DHT22;2753;49.196;8.286;2023-08-31T03:20:20;15.60;99.90
5461;DHT22;2753;49.196;8.286;2023-08-31T03:22:46;15.60;99.90
5461;DHT22;2753;49.196;8.286;2023-08-31T03:25:12;15.70;99.90
5461;DHT22;2753;49.196;8.286;2023-08-31T03:27:37;15.70;99.90
5461;DHT22;2753;49.196;8.286;2023-08-31T03:30:03;16.60;99.90
5461;DHT22;2753;49.196;8.286;2023-08-31T03:32:30;15.70;99.90
5461;DHT22;2753;49.196;8.286;2023-08-31T03:34:56;15.70;99.90
5461;DHT22;2753;49.196;8.286;2023-08-31T03:37:21;15.60;99.90
5461;DHT22;2753;49.196;8.286;2023-08-31T03:39:48;15.60;99.90
5461;DHT22;2753;49.196;8.286;2023-08-31T03:42:13;15.40;99.90
5461;DHT22;2753;49.196;8.286;2023-08-31T03:44:39;15.30;99.90
5461;DHT22;2753;49.196;8.286;2023-08-31T03:47:05;15.30;99.90
5461;DHT22;2753;49.196;8.286;2023-08-31T03:49:31;15.30;99.90
5461;DHT22;2753;49.196;8.286;2023-08-31T03:51:57;15.20;99.90
5461;DHT22;2753;49.196;8.286;2023-08-31T03:54:23;15.30;99.90
5461;DHT22;2753;49.196;8.286;2023-08-31T03:56:49;15.30;99.90
5461;DHT22;2753;49.196;8.286;2023-08-31T03:59:15;15.20;99.90
5461;DHT22;2753;49.196;8.286;2023-08-31T04:01:41;15.30;99.90
5461;DHT22;2753;49.196;8.286;2023-08-31T04:04:07;15.30;99.90
5461;DHT22;2753;49.196;8.286;2023-08-31T04:06:32;15.30;99.90
5461;DHT22;2753;49.196;8.286;2023-08-31T04:08:58;15.30;99.90
5461;DHT22;2753;49.196;8.286;2023-08-31T04:11:25;15.30;99.90
5461;DHT22;2753;49.196;8.286;2023-08-31T04:13:51;15.30;99.90
5461;DHT22;2753;49.196;8.286;2023-08-31T04:16:17;15.20;99.90
5461;DHT22;2753;49.196;8.286;2023-08-31T04:18:43;15.20;99.90
5461;DHT22;2753;49.196;8.286;2023-08-31T04:21:09;15.10;99.90
5461;DHT22;2753;49.196;8.286;2023-08-31T04:23:34;15.20;99.90
5461;DHT22;2753;49.196;8.286;2023-08-31T04:26:00;15.10;99.90
5461;DHT22;2753;49.196;8.286;2023-08-31T04:28:26;15.00;99.90
5461;DHT22;2753;49.196;8.286;2023-08-31T04:30:51;15.00;99.90
5461;DHT22;2753;49.196;8.286;2023-08-31T04:33:18;15.10;99.90
5461;DHT22;2753;49.196;8.286;2023-08-31T04:35:44;15.20;99.90
5461;DHT22;2753;49.196;8.286;2023-08-31T04:38:10;15.20;99.90
5461;DHT22;2753;49.196;8.286;2023-08-31T04:40:36;15.20;99.90
5461;DHT22;2753;49.196;8.286;2023-08-31T04:43:02;15.30;99.90
5461;DHT22;2753;49.196;8.286;2023-08-31T04:45:28;15.30;99.90
5461;DHT22;2753;49.196;8.286;2023-08-31T04:47:54;15.30;99.90
5461;DHT22;2753;49.196;8.286;2023-08-31T04:50:19;15.30;99.90
5461;DHT22;2753;49.196;8.286;2023-08-31T04:52:45;15.20;99.90
5461;DHT22;2753;49.196;8.286;2023-08-31T04:55:13;15.30;99.90
5461;DHT22;2753;49.196;8.286;2023-08-31T04:57:39;15.30;99.90
5461;DHT22;2753;49.196;8.286;2023-08-31T05:00:05;15.30;99.90
5461;DHT22;2753;49.196;8.286;2023-08-31T05:02:34;15.30;99.90
5461;DHT22;2753;49.196;8.286;2023-08-31T05:05:00;15.20;99.90
5461;DHT22;2753;49.196;8.286;2023-08-31T05:07:26;15.20;99.90
5461;DHT22;2753;49.196;8.286;2023-08-31T05:09:51;15.20;99.90
5461;DHT22;2753;49.196;8.286;2023-08-31T05:12:17;15.20;99.90
5461;DHT22;2753;49.196;8.286;2023-08-31T05:14:43;15.20;99.90
5461;DHT22;2753;49.196;8.286;2023-08-31T05:17:09;15.20;99.90
5461;DHT22;2753;49.196;8.286;2023-08-31T05:19:34;15.20;99.90
5461;DHT22;2753;49.196;8.286;2023-08-31T05:22:00;15.20;99.90
5461;DHT22;2753;49.196;8.286;2023-08-31T05:24:26;15.20;99.90
5461;DHT22;2753;49.196;8.286;2023-08-31T05:26:52;15.10;99.90
5461;DHT22;2753;49.196;8.286;2023-08-31T05:29:18;15.10;99.90
5461;DHT22;2753;49.196;8.286;2023-08-31T05:31:43;15.10;99.90
5461;DHT22;2753;49.196;8.286;2023-08-31T05:34:10;15.00;99.90
5461;DHT22;2753;49.196;8.286;2023-08-31T05:36:36;15.10;99.90
5461;DHT22;2753;49.196;8.286;2023-08-31T05:39:02;15.10;99.90
5461;DHT22;2753;49.196;8.286;2023-08-31T05:41:28;15.10;99.90
5461;DHT22;2753;49.196;8.286;2023-08-31T05:43:54;15.10;99.90
5461;DHT22;2753;49.196;8.286;2023-08-31T05:46:19;15.10;99.90
5461;DHT22;2753;49.196;8.286;2023-08-31T05:48:45;15.10;99.90
5461;DHT22;2753;49.196;8.286;2023-08-31T05:51:11;15.20;99.90
5461;DHT22;2753;49.196;8.286;2023-08-31T05:53:36;15.20;99.90
5461;DHT22;2753;49.196;8.286;2023-08-31T05:56:03;15.20;99.90
5461;DHT22;2753;49.196;8.286;2023-08-31T05:58:36;15.20;99.90
5461;DHT22;2753;49.196;8.286;2023-08-31T06:01:03;15.20;99.90
5461;DHT22;2753;49.196;8.286;2023-08-31T06:03:29;15.30;99.90
5461;DHT22;2753;49.196;8.286;2023-08-31T06:05:57;15.20;99.90
5461;DHT22;2753;49.196;8.286;2023-08-31T06:08:23;15.20;99.90
5461;DHT22;2753;49.196;8.286;2023-08-31T06:10:49;15.30;99.90
5461;DHT22;2753;49.196;8.286;2023-08-31T06:13:15;15.40;99.90
5461;DHT22;2753;49.196;8.286;2023-08-31T06:15:41;15.50;99.90
5461;DHT22;2753;49.196;8.286;2023-08-31T06:18:07;15.50;99.90
5461;DHT22;2753;49.196;8.286;2023-08-31T06:20:33;15.60;99.90
5461;DHT22;2753;49.196;8.286;2023-08-31T06:22:59;16.80;99.90
5461;DHT22;2753;49.196;8.286;2023-08-31T06:25:25;18.50;99.40
5461;DHT22;2753;49.196;8.286;2023-08-31T06:27:51;19.40;97.80
5461;DHT22;2753;49.196;8.286;2023-08-31T06:30:17;19.00;97.30
5461;DHT22;2753;49.196;8.286;2023-08-31T06:32:44;18.20;98.30
5461;DHT22;2753;49.196;8.286;2023-08-31T06:35:14;18.10;99.10
5461;DHT22;2753;49.196;8.286;2023-08-31T06:37:43;18.70;98.30
5461;DHT22;2753;49.196;8.286;2023-08-31T06:40:10;19.00;97.40
5461;DHT22;2753;49.196;8.286;2023-08-31T06:42:36;18.80;97.10
5461;DHT22;2753;49.196;8.286;2023-08-31T06:45:03;18.80;97.30
5461;DHT22;2753;49.196;8.286;2023-08-31T06:47:30;18.90;97.10
5461;DHT22;2753;49.196;8.286;2023-08-31T06:49:56;18.90;97.00
5461;DHT22;2753;49.196;8.286;2023-08-31T06:52:23;18.90;97.10
5461;DHT22;2753;49.196;8.286;2023-08-31T06:54:49;18.70;97.40
5461;DHT22;2753;49.196;8.286;2023-08-31T06:57:15;18.50;97.60
5461;DHT22;2753;49.196;8.286;2023-08-31T06:59:41;18.20;98.00
5461;DHT22;2753;49.196;8.286;2023-08-31T07:02:06;18.30;98.20
5461;DHT22;2753;49.196;8.286;2023-08-31T07:04:32;18.40;97.70
5461;DHT22;2753;49.196;8.286;2023-08-31T07:06:58;18.40;98.00
5461;DHT22;2753;49.196;8.286;2023-08-31T07:09:23;18.50;98.10
5461;DHT22;2753;49.196;8.286;2023-08-31T07:11:49;18.70;98.00
5461;DHT22;2753;49.196;8.286;2023-08-31T07:14:15;18.60;97.40
5461;DHT22;2753;49.196;8.286;2023-08-31T07:16:40;18.50;97.60
5461;DHT22;2753;49.196;8.286;2023-08-31T07:19:06;18.50;97.70
5461;DHT22;2753;49.196;8.286;2023-08-31T07:21:31;18.50;97.30
5461;DHT22;2753;49.196;8.286;2023-08-31T07:23:57;18.50;97.70
5461;DHT22;2753;49.196;8.286;2023-08-31T07:26:23;18.50;97.50
5461;DHT22;2753;49.196;8.286;2023-08-31T07:28:48;18.40;97.90
5461;DHT22;2753;49.196;8.286;2023-08-31T07:31:14;18.60;97.60
5461;DHT22;2753;49.196;8.286;2023-08-31T07:33:42;18.80;96.70
5461;DHT22;2753;49.196;8.286;2023-08-31T07:36:07;18.70;97.00
5461;DHT22;2753;49.196;8.286;2023-08-31T07:38:33;18.70;96.80
5461;DHT22;2753;49.196;8.286;2023-08-31T07:40:59;18.60;96.20
5461;DHT22;2753;49.196;8.286;2023-08-31T07:43:25;18.70;96.70
5461;DHT22;2753;49.196;8.286;2023-08-31T07:45:52;18.80;96.50
5461;DHT22;2753;49.196;8.286;2023-08-31T07:48:18;18.80;96.10
5461;DHT22;2753;49.196;8.286;2023-08-31T07:53:11;18.90;96.00
5461;DHT22;2753;49.196;8.286;2023-08-31T07:55:37;18.80;96.40
5461;DHT22;2753;49.196;8.286;2023-08-31T07:58:03;19.00;96.40
5461;DHT22;2753;49.196;8.286;2023-08-31T08:00:28;19.00;96.50
5461;DHT22;2753;49.196;8.286;2023-08-31T08:02:54;19.20;96.20
5461;DHT22;2753;49.196;8.286;2023-08-31T08:05:20;19.30;96.30
5461;DHT22;2753;49.196;8.286;2023-08-31T08:07:45;19.40;96.40
5461;DHT22;2753;49.196;8.286;2023-08-31T08:10:11;19.40;96.30
5461;DHT22;2753;49.196;8.286;2023-08-31T08:12:39;19.40;96.00
5461;DHT22;2753;49.196;8.286;2023-08-31T08:15:05;19.50;95.90
5461;DHT22;2753;49.196;8.286;2023-08-31T08:17:32;19.50;95.60
5461;DHT22;2753;49.196;8.286;2023-08-31T08:19:58;19.50;95.50
5461;DHT22;2753;49.196;8.286;2023-08-31T08:22:25;19.50;95.20
5461;DHT22;2753;49.196;8.286;2023-08-31T08:24:50;19.40;95.30
5461;DHT22;2753;49.196;8.286;2023-08-31T08:27:16;19.50;95.40
5461;DHT22;2753;49.196;8.286;2023-08-31T08:29:44;19.60;95.30
5461;DHT22;2753;49.196;8.286;2023-08-31T08:32:10;19.40;95.20
5461;DHT22;2753;49.196;8.286;2023-08-31T08:34:36;19.50;93.90
5461;DHT22;2753;49.196;8.286;2023-08-31T08:37:01;19.60;94.30
5461;DHT22;2753;49.196;8.286;2023-08-31T08:39:29;19.80;94.20
5461;DHT22;2753;49.196;8.286;2023-08-31T08:42:00;20.00;93.70
5461;DHT22;2753;49.196;8.286;2023-08-31T08:44:32;20.00;93.30
5461;DHT22;2753;49.196;8.286;2023-08-31T08:47:00;20.20;93.40
5461;DHT22;2753;49.196;8.286;2023-08-31T08:49:26;20.30;92.60
5461;DHT22;2753;49.196;8.286;2023-08-31T08:51:53;20.40;91.70
5461;DHT22;2753;49.196;8.286;2023-08-31T08:54:22;20.40;91.60
5461;DHT22;2753;49.196;8.286;2023-08-31T08:56:48;20.30;91.30
5461;DHT22;2753;49.196;8.286;2023-08-31T08:59:14;20.40;91.50
5461;DHT22;2753;49.196;8.286;2023-08-31T09:01:40;20.50;91.90
5461;DHT22;2753;49.196;8.286;2023-08-31T09:04:06;20.40;90.90
5461;DHT22;2753;49.196;8.286;2023-08-31T09:06:32;20.40;91.70
5461;DHT22;2753;49.196;8.286;2023-08-31T09:08:58;20.60;92.00
5461;DHT22;2753;49.196;8.286;2023-08-31T09:11:25;20.70;92.30
5461;DHT22;2753;49.196;8.286;2023-08-31T09:13:52;21.00;91.90
5461;DHT22;2753;49.196;8.286;2023-08-31T09:16:29;21.10;90.90
5461;DHT22;2753;49.196;8.286;2023-08-31T09:18:56;21.20;90.70
5461;DHT22;2753;49.196;8.286;2023-08-31T09:21:22;21.20;90.10
5461;DHT22;2753;49.196;8.286;2023-08-31T09:23:59;21.20;90.50
5461;DHT22;2753;49.196;8.286;2023-08-31T09:26:25;21.40;90.30
5461;DHT22;2753;49.196;8.286;2023-08-31T09:28:52;21.30;90.40
5461;DHT22;2753;49.196;8.286;2023-08-31T09:31:18;21.50;90.40
5461;DHT22;2753;49.196;8.286;2023-08-31T09:33:51;21.40;89.10
5461;DHT22;2753;49.196;8.286;2023-08-31T09:36:17;21.60;88.30
5461;DHT22;2753;49.196;8.286;2023-08-31T09:38:43;21.70;85.50
5461;DHT22;2753;49.196;8.286;2023-08-31T09:41:09;21.60;83.80
5461;DHT22;2753;49.196;8.286;2023-08-31T09:43:35;21.20;83.50
5461;DHT22;2753;49.196;8.286;2023-08-31T09:46:03;21.40;84.70
5461;DHT22;2753;49.196;8.286;2023-08-31T09:48:29;21.40;85.10
5461;DHT22;2753;49.196;8.286;2023-08-31T09:50:56;21.40;84.30
5461;DHT22;2753;49.196;8.286;2023-08-31T09:53:24;21.40;84.20
5461;DHT22;2753;49.196;8.286;2023-08-31T09:55:51;21.50;84.10
5461;DHT22;2753;49.196;8.286;2023-08-31T09:58:20;21.50;84.20
5461;DHT22;2753;49.196;8.286;2023-08-31T10:00:49;21.40;83.60
5461;DHT22;2753;49.196;8.286;2023-08-31T10:03:15;21.30;82.60
5461;DHT22;2753;49.196;8.286;2023-08-31T10:05:44;21.30;82.70
5461;DHT22;2753;49.196;8.286;2023-08-31T10:08:14;21.30;83.30
5461;DHT22;2753;49.196;8.286;2023-08-31T10:10:41;21.30;83.20
5461;DHT22;2753;49.196;8.286;2023-08-31T10:13:07;21.30;82.60
5461;DHT22;2753;49.196;8.286;2023-08-31T10:15:34;21.40;82.40
5461;DHT22;2753;49.196;8.286;2023-08-31T10:18:04;21.50;81.40
5461;DHT22;2753;49.196;8.286;2023-08-31T10:20:32;21.40;80.60
5461;DHT22;2753;49.196;8.286;2023-08-31T10:23:05;21.30;79.50
5461;DHT22;2753;49.196;8.286;2023-08-31T10:28:25;21.20;78.90
5461;DHT22;2753;49.196;8.286;2023-08-31T10:31:07;21.10;77.60
5461;DHT22;2753;49.196;8.286;2023-08-31T10:33:40;21.00;78.60
5461;DHT22;2753;49.196;8.286;2023-08-31T10:36:19;20.90;80.10
5461;DHT22;2753;49.196;8.286;2023-08-31T10:39:12;21.00;80.80
5461;DHT22;2753;49.196;8.286;2023-08-31T10:41:39;21.00;80.80
5461;DHT22;2753;49.196;8.286;2023-08-31T10:44:24;21.10;82.10
5461;DHT22;2753;49.196;8.286;2023-08-31T10:46:50;21.00;81.70
5461;DHT22;2753;49.196;8.286;2023-08-31T10:49:19;21.20;82.80
5461;DHT22;2753;49.196;8.286;2023-08-31T10:54:32;21.20;81.80
5461;DHT22;2753;49.196;8.286;2023-08-31T10:57:04;21.00;81.90
5461;DHT22;2753;49.196;8.286;2023-08-31T10:59:47;20.80;81.20
5461;DHT22;2753;49.196;8.286;2023-08-31T11:02:43;20.80;82.70
5461;DHT22;2753;49.196;8.286;2023-08-31T11:05:16;20.80;81.60
5461;DHT22;2753;49.196;8.286;2023-08-31T11:07:49;20.80;82.00
5461;DHT22;2753;49.196;8.286;2023-08-31T11:10:21;20.70;81.40
5461;DHT22;2753;49.196;8.286;2023-08-31T11:12:50;20.70;82.30
5461;DHT22;2753;49.196;8.286;2023-08-31T11:15:18;20.80;82.50
5461;DHT22;2753;49.196;8.286;2023-08-31T11:17:45;20.90;82.50
5461;DHT22;2753;49.196;8.286;2023-08-31T11:20:16;21.00;83.80
5461;DHT22;2753;49.196;8.286;2023-08-31T11:22:46;20.90;86.40
5461;DHT22;2753;49.196;8.286;2023-08-31T11:25:13;20.90;87.30
5461;DHT22;2753;49.196;8.286;2023-08-31T11:27:39;20.80;88.20
5461;DHT22;2753;49.196;8.286;2023-08-31T11:30:15;20.80;87.80
5461;DHT22;2753;49.196;8.286;2023-08-31T11:32:49;20.60;86.90
5461;DHT22;2753;49.196;8.286;2023-08-31T11:35:15;20.70;86.80
5461;DHT22;2753;49.196;8.286;2023-08-31T11:37:44;20.60;87.00
5461;DHT22;2753;49.196;8.286;2023-08-31T11:40:11;20.60;87.40
5461;DHT22;2753;49.196;8.286;2023-08-31T11:42:40;20.60;86.40
5461;DHT22;2753;49.196;8.286;2023-08-31T11:45:06;20.50;85.70
5461;DHT22;2753;49.196;8.286;2023-08-31T11:47:33;20.50;86.80
5461;DHT22;2753;49.196;8.286;2023-08-31T11:50:00;20.60;85.80
5461;DHT22;2753;49.196;8.286;2023-08-31T11:52:27;20.70;86.70
5461;DHT22;2753;49.196;8.286;2023-08-31T11:54:53;20.80;86.80
5461;DHT22;2753;49.196;8.286;2023-08-31T11:57:25;20.70;86.10
5461;DHT22;2753;49.196;8.286;2023-08-31T11:59:52;20.80;87.20
5461;DHT22;2753;49.196;8.286;2023-08-31T12:02:20;20.70;86.80
5461;DHT22;2753;49.196;8.286;2023-08-31T12:04:47;20.80;86.30
5461;DHT22;2753;49.196;8.286;2023-08-31T12:07:19;20.90;86.70
5461;DHT22;2753;49.196;8.286;2023-08-31T12:09:45;21.00;86.50
5461;DHT22;2753;49.196;8.286;2023-08-31T12:12:14;20.90;85.80
5461;DHT22;2753;49.196;8.286;2023-08-31T12:14:41;20.90;86.20
5461;DHT22;2753;49.196;8.286;2023-08-31T12:17:08;20.90;86.40
5461;DHT22;2753;49.196;8.286;2023-08-31T12:19:37;20.90;86.20
5461;DHT22;2753;49.196;8.286;2023-08-31T12:22:03;20.90;86.70
5461;DHT22;2753;49.196;8.286;2023-08-31T12:24:29;20.80;86.00
5461;DHT22;2753;49.196;8.286;2023-08-31T12:26:55;20.90;85.50
5461;DHT22;2753;49.196;8.286;2023-08-31T12:29:22;21.00;84.90
5461;DHT22;2753;49.196;8.286;2023-08-31T12:31:48;21.00;85.30
5461;DHT22;2753;49.196;8.286;2023-08-31T12:34:15;21.00;85.50
5461;DHT22;2753;49.196;8.286;2023-08-31T12:36:41;21.20;85.60
5461;DHT22;2753;49.196;8.286;2023-08-31T12:39:07;21.20;84.10
5461;DHT22;2753;49.196;8.286;2023-08-31T12:41:38;21.20;83.80
5461;DHT22;2753;49.196;8.286;2023-08-31T12:44:04;21.20;84.40
5461;DHT22;2753;49.196;8.286;2023-08-31T12:46:31;21.20;83.90
5461;DHT22;2753;49.196;8.286;2023-08-31T12:48:56;21.40;85.20
5461;DHT22;2753;49.196;8.286;2023-08-31T12:51:22;21.40;83.30
5461;DHT22;2753;49.196;8.286;2023-08-31T12:53:48;21.50;82.70
5461;DHT22;2753;49.196;8.286;2023-08-31T12:56:14;21.50;82.20
5461;DHT22;2753;49.196;8.286;2023-08-31T12:58:49;21.50;82.30
5461;DHT22;2753;49.196;8.286;2023-08-31T13:01:15;21.60;83.20
5461;DHT22;2753;49.196;8.286;2023-08-31T13:03:41;21.40;82.70
5461;DHT22;2753;49.196;8.286;2023-08-31T13:06:06;21.40;82.50
5461;DHT22;2753;49.196;8.286;2023-08-31T13:08:32;21.40;82.60
5461;DHT22;2753;49.196;8.286;2023-08-31T13:10:58;21.30;83.20
5461;DHT22;2753;49.196;8.286;2023-08-31T13:13:23;21.30;83.40
5461;DHT22;2753;49.196;8.286;2023-08-31T13:15:49;21.30;82.40
5461;DHT22;2753;49.196;8.286;2023-08-31T13:18:15;21.30;82.90
5461;DHT22;2753;49.196;8.286;2023-08-31T13:20:52;21.20;82.10
5461;DHT22;2753;49.196;8.286;2023-08-31T13:23:19;21.10;80.80
5461;DHT22;2753;49.196;8.286;2023-08-31T13:25:45;21.00;81.20
5461;DHT22;2753;49.196;8.286;2023-08-31T13:28:11;21.00;82.40
5461;DHT22;2753;49.196;8.286;2023-08-31T13:30:37;20.90;81.40
5461;DHT22;2753;49.196;8.286;2023-08-31T13:33:03;20.80;82.10
5461;DHT22;2753;49.196;8.286;2023-08-31T13:35:31;20.80;82.10
5461;DHT22;2753;49.196;8.286;2023-08-31T13:37:57;20.80;82.40
5461;DHT22;2753;49.196;8.286;2023-08-31T13:40:23;20.80;82.20
5461;DHT22;2753;49.196;8.286;2023-08-31T13:42:57;20.90;82.10
5461;DHT22;2753;49.196;8.286;2023-08-31T13:45:25;20.90;83.00
5461;DHT22;2753;49.196;8.286;2023-08-31T13:47:51;21.00;83.40
5461;DHT22;2753;49.196;8.286;2023-08-31T13:50:17;21.00;83.90
5461;DHT22;2753;49.196;8.286;2023-08-31T13:52:43;20.90;83.30
5461;DHT22;2753;49.196;8.286;2023-08-31T13:55:09;20.90;83.90
5461;DHT22;2753;49.196;8.286;2023-08-31T13:57:34;20.80;84.10
5461;DHT22;2753;49.196;8.286;2023-08-31T14:00:00;20.80;84.40
5461;DHT22;2753;49.196;8.286;2023-08-31T14:02:26;20.70;84.10
5461;DHT22;2753;49.196;8.286;2023-08-31T14:04:53;20.70;84.60
5461;DHT22;2753;49.196;8.286;2023-08-31T14:07:19;20.50;84.40
5461;DHT22;2753;49.196;8.286;2023-08-31T14:09:45;20.40;84.60
5461;DHT22;2753;49.196;8.286;2023-08-31T14:12:10;20.40;85.40
5461;DHT22;2753;49.196;8.286;2023-08-31T14:14:36;20.40;85.70
5461;DHT22;2753;49.196;8.286;2023-08-31T14:17:02;20.30;85.90
5461;DHT22;2753;49.196;8.286;2023-08-31T14:19:29;20.40;86.10
5461;DHT22;2753;49.196;8.286;2023-08-31T14:21:54;20.40;86.50
5461;DHT22;2753;49.196;8.286;2023-08-31T14:24:20;20.40;87.00
5461;DHT22;2753;49.196;8.286;2023-08-31T14:26:46;20.30;86.50
5461;DHT22;2753;49.196;8.286;2023-08-31T14:29:11;20.30;86.10
5461;DHT22;2753;49.196;8.286;2023-08-31T14:31:38;20.20;86.50
5461;DHT22;2753;49.196;8.286;2023-08-31T14:34:03;20.20;87.20
5461;DHT22;2753;49.196;8.286;2023-08-31T14:36:30;20.10;87.80
5461;DHT22;2753;49.196;8.286;2023-08-31T14:38:55;20.10;88.10
5461;DHT22;2753;49.196;8.286;2023-08-31T14:41:21;20.20;88.20
5461;DHT22;2753;49.196;8.286;2023-08-31T14:43:47;20.20;88.40
5461;DHT22;2753;49.196;8.286;2023-08-31T14:46:12;20.20;88.60
5461;DHT22;2753;49.196;8.286;2023-08-31T14:48:38;20.30;88.90
5461;DHT22;2753;49.196;8.286;2023-08-31T14:51:04;20.20;89.00
5461;DHT22;2753;49.196;8.286;2023-08-31T14:53:30;20.20;89.40
5461;DHT22;2753;49.196;8.286;2023-08-31T14:55:55;20.20;89.70
5461;DHT22;2753;49.196;8.286;2023-08-31T14:58:21;20.20;90.00
5461;DHT22;2753;49.196;8.286;2023-08-31T15:00:47;20.20;90.20
5461;DHT22;2753;49.196;8.286;2023-08-31T15:03:12;20.20;90.40
5461;DHT22;2753;49.196;8.286;2023-08-31T15:05:38;20.20;90.50
5461;DHT22;2753;49.196;8.286;2023-08-31T15:08:07;20.10;90.70
5461;DHT22;2753;49.196;8.286;2023-08-31T15:10:33;20.20;91.00
5461;DHT22;2753;49.196;8.286;2023-08-31T15:12:59;20.20;91.20
5461;DHT22;2753;49.196;8.286;2023-08-31T15:15:28;20.20;91.30
5461;DHT22;2753;49.196;8.286;2023-08-31T15:17:54;20.30;91.40
5461;DHT22;2753;49.196;8.286;2023-08-31T15:20:21;20.40;91.50
5461;DHT22;2753;49.196;8.286;2023-08-31T15:22:47;20.40;91.60
5461;DHT22;2753;49.196;8.286;2023-08-31T15:25:12;20.40;91.50
5461;DHT22;2753;49.196;8.286;2023-08-31T15:27:38;20.40;91.50
5461;DHT22;2753;49.196;8.286;2023-08-31T15:30:05;20.40;91.30
5461;DHT22;2753;49.196;8.286;2023-08-31T15:32:33;20.40;91.40
5461;DHT22;2753;49.196;8.286;2023-08-31T15:34:58;20.50;91.40
5461;DHT22;2753;49.196;8.286;2023-08-31T15:37:24;20.40;91.20
5461;DHT22;2753;49.196;8.286;2023-08-31T15:39:51;20.40;91.20
5461;DHT22;2753;49.196;8.286;2023-08-31T15:42:16;20.40;91.20
5461;DHT22;2753;49.196;8.286;2023-08-31T15:44:42;20.40;91.40
5461;DHT22;2753;49.196;8.286;2023-08-31T15:47:09;20.40;91.40
5461;DHT22;2753;49.196;8.286;2023-08-31T15:49:35;20.40;91.50
5461;DHT22;2753;49.196;8.286;2023-08-31T15:52:02;20.30;91.90
5461;DHT22;2753;49.196;8.286;2023-08-31T15:54:31;20.40;91.70
5461;DHT22;2753;49.196;8.286;2023-08-31T15:56:57;20.40;91.80
5461;DHT22;2753;49.196;8.286;2023-08-31T15:59:23;20.30;91.80
5461;DHT22;2753;49.196;8.286;2023-08-31T16:01:49;20.30;91.80
5461;DHT22;2753;49.196;8.286;2023-08-31T16:04:15;20.40;92.00
5461;DHT22;2753;49.196;8.286;2023-08-31T16:06:41;20.40;92.20
5461;DHT22;2753;49.196;8.286;2023-08-31T16:09:07;20.30;92.20
5461;DHT22;2753;49.196;8.286;2023-08-31T16:11:33;20.30;92.80
5461;DHT22;2753;49.196;8.286;2023-08-31T16:13:59;20.30;92.40